Orbital elements of SL-8 R/B
| Launched | 11 December 1970 |
| Flight ended | – |
| Launch site | Plesetsk Missile and Space Complex, Russia |
| Owner | Commonwealth of Independent States (former USSR) |
| NORAD ID | 4800 |
| Date fetched |
Epoch osculation |
Inc. [°] |
Ecc. | RA asc node [hr] |
Arg Peri. [°] |
Mean anom [°] |
Mean motion [rev/day] |
Abs. mag |
| Date fetched |
Epoch osculation |
Inc. [°] |
Ecc. | RA asc node [hr] |
Arg Peri. [°] |
Mean anom [°] |
Mean motion [rev/day] |
Abs. mag |
| 2026 May 05 17:57 | 2026 May 05 08:53:41 | 74.0241 | 0.00084 | 0.1979 | 81.0915 | 279.1160 | 13.79000 | 6.243 |
| 2026 May 04 17:57 | 2026 Apr 30 15:43:35 | 74.0246 | 0.00084 | 0.7234 | 90.9680 | 279.1160 | 13.79000 | 6.243 |
| 2026 May 03 17:57 | 2026 Apr 30 15:43:35 | 74.0246 | 0.00084 | 0.7234 | 90.9680 | 279.1160 | 13.79000 | 6.243 |
| 2026 May 02 17:57 | 2026 Apr 30 15:43:35 | 74.0246 | 0.00084 | 0.7234 | 90.9680 | 279.1160 | 13.79000 | 6.243 |
| 2026 May 01 17:56 | 2026 Apr 30 15:43:35 | 74.0246 | 0.00084 | 0.7234 | 90.9680 | 279.1160 | 13.79000 | 6.243 |
| 2026 Apr 30 17:56 | 2026 Apr 30 15:43:35 | 74.0246 | 0.00084 | 0.7234 | 90.9680 | 279.1160 | 13.79000 | 6.243 |
| 2026 Apr 29 17:57 | 2026 Apr 24 04:46:20 | 74.0247 | 0.00084 | 1.4428 | 104.5297 | 279.1160 | 13.79000 | 6.243 |
| 2026 Apr 28 17:56 | 2026 Apr 24 04:46:20 | 74.0247 | 0.00084 | 1.4428 | 104.5297 | 279.1160 | 13.79000 | 6.243 |
| 2026 Apr 27 17:58 | 2026 Apr 24 04:46:20 | 74.0247 | 0.00084 | 1.4428 | 104.5297 | 279.1160 | 13.79000 | 6.243 |
| 2026 Apr 26 17:58 | 2026 Apr 24 04:46:20 | 74.0247 | 0.00084 | 1.4428 | 104.5297 | 279.1160 | 13.79000 | 6.243 |
| 2026 Apr 25 17:58 | 2026 Apr 24 04:46:20 | 74.0247 | 0.00084 | 1.4428 | 104.5297 | 279.1160 | 13.79000 | 6.243 |
| 2026 Apr 24 17:59 | 2026 Apr 24 04:46:20 | 74.0247 | 0.00084 | 1.4428 | 104.5297 | 279.1160 | 13.79000 | 6.243 |
| 2026 Apr 23 17:57 | 2026 Apr 19 11:36:13 | 74.0244 | 0.00084 | 1.9683 | 114.4131 | 279.1160 | 13.79000 | 6.243 |
| 2026 Apr 22 17:57 | 2026 Apr 19 11:36:13 | 74.0244 | 0.00084 | 1.9683 | 114.4131 | 279.1160 | 13.79000 | 6.243 |
| 2026 Apr 21 17:57 | 2026 Apr 19 11:36:13 | 74.0244 | 0.00084 | 1.9683 | 114.4131 | 279.1160 | 13.79000 | 6.243 |
| 2026 Apr 20 17:57 | 2026 Apr 19 11:36:13 | 74.0244 | 0.00084 | 1.9683 | 114.4131 | 279.1160 | 13.79000 | 6.243 |
| 2026 Apr 19 17:58 | 2026 Apr 19 11:36:13 | 74.0244 | 0.00084 | 1.9683 | 114.4131 | 279.1160 | 13.79000 | 6.243 |
| 2026 Apr 18 17:56 | 2026 Apr 13 05:52:22 | 74.0239 | 0.00085 | 2.6635 | 127.4384 | 279.1160 | 13.79000 | 6.243 |
| 2026 Apr 16 17:57 | 2026 Apr 13 05:52:22 | 74.0239 | 0.00085 | 2.6635 | 127.4384 | 279.1160 | 13.79000 | 6.243 |
| 2026 Apr 14 17:57 | 2026 Apr 13 05:52:22 | 74.0239 | 0.00085 | 2.6635 | 127.4384 | 279.1160 | 13.79000 | 6.243 |
| 2026 Apr 13 17:57 | 2026 Apr 13 05:52:22 | 74.0239 | 0.00085 | 2.6635 | 127.4384 | 279.1160 | 13.79000 | 6.243 |
| 2026 Apr 12 17:57 | 2026 Apr 08 14:26:42 | 74.0230 | 0.00086 | 3.1809 | 137.0708 | 279.1160 | 13.79000 | 6.243 |
| 2026 Apr 11 17:57 | 2026 Apr 08 14:26:42 | 74.0230 | 0.00086 | 3.1809 | 137.0708 | 279.1160 | 13.79000 | 6.243 |
| 2026 Apr 10 17:58 | 2026 Apr 08 14:26:42 | 74.0230 | 0.00086 | 3.1809 | 137.0708 | 279.1160 | 13.79000 | 6.243 |
| 2026 Apr 09 18:01 | 2026 Apr 08 14:26:42 | 74.0230 | 0.00086 | 3.1809 | 137.0708 | 279.1160 | 13.79000 | 6.243 |
| 2026 Apr 08 17:57 | 2026 Apr 08 14:26:42 | 74.0230 | 0.00086 | 3.1809 | 137.0708 | 279.1160 | 13.79000 | 6.243 |